Time;durP1;ratioP1;P1;durP2;ratioP2;P2;SDS_P1;SDS_P2;PMS_P1;PMS_P2;Temp;Humidity;BMP_temperature;BMP_pressure;BME280_temperature;BME280_humidity;BME280_pressure;Samples;Min_cycle;Max_cycle;Signal;HPM_P1;HPM_P2
2022/10/24 00:00:46;;;;;;;4.32;2.65;;;;;;;20.30;58.37;100362.03;5084224;28;20063;-44
2022/10/24 00:03:13;;;;;;;3.90;1.90;;;;;;;20.29;58.31;100361.19;5082255;28;20044;-45
2022/10/24 00:05:47;;;;;;;4.25;1.95;;;;;;;20.28;58.80;100353.31;5083077;28;20056;-45
2022/10/24 00:08:15;;;;;;;2.55;1.75;;;;;;;20.28;58.42;100348.75;5085634;28;20091;-44
2022/10/24 00:10:43;;;;;;;3.95;2.00;;;;;;;20.27;58.93;100343.56;5082103;28;20071;-46
2022/10/24 00:13:11;;;;;;;5.03;2.03;;;;;;;20.27;58.42;100341.72;5083045;28;20051;-44
2022/10/24 00:15:39;;;;;;;2.40;1.58;;;;;;;20.26;58.36;100329.28;5083094;28;20073;-44
2022/10/24 00:18:05;;;;;;;3.25;2.05;;;;;;;20.25;59.03;100332.97;5081236;28;20044;-45
2022/10/24 00:20:32;;;;;;;4.78;2.05;;;;;;;20.26;58.68;100333.81;5084599;28;20051;-44
2022/10/24 00:22:58;;;;;;;3.50;1.80;;;;;;;20.26;58.46;100334.66;5087664;28;20048;-44
2022/10/24 00:25:25;;;;;;;6.15;2.20;;;;;;;20.25;59.03;100322.19;5083961;28;20056;-47
2022/10/24 00:27:51;;;;;;;5.88;2.53;;;;;;;20.24;58.66;100331.31;5082482;28;20443;-43
2022/10/24 00:30:18;;;;;;;4.53;2.13;;;;;;;20.24;58.87;100333.16;5086188;28;20044;-44
2022/10/24 00:32:44;;;;;;;3.58;2.00;;;;;;;20.22;58.40;100322.56;5079440;28;20044;-44
2022/10/24 00:35:11;;;;;;;3.05;1.75;;;;;;;20.23;58.78;100326.13;5087208;28;20085;-45
2022/10/24 00:37:38;;;;;;;6.53;2.30;;;;;;;20.21;58.66;100321.72;5086692;28;20055;-43
2022/10/24 00:40:05;;;;;;;2.42;1.80;;;;;;;20.21;58.51;100329.81;5084577;28;20060;-47
2022/10/24 00:42:32;;;;;;;5.80;2.38;;;;;;;20.20;58.69;100325.44;5083838;28;20342;-46
2022/10/24 00:44:58;;;;;;;3.10;1.80;;;;;;;20.21;58.41;100320.91;5083359;28;20051;-46
2022/10/24 00:47:26;;;;;;;5.05;1.88;;;;;;;20.21;58.70;100321.72;5083162;28;20064;-44
2022/10/24 00:49:59;;;;;;;4.88;2.40;;;;;;;20.21;58.46;100310.13;5083937;28;20059;-45
2022/10/24 00:52:35;;;;;;;5.10;2.15;;;;;;;20.20;58.47;100320.06;5081233;28;20044;-44
2022/10/24 00:55:03;;;;;;;5.30;2.05;;;;;;;20.21;58.92;100315.50;5084792;28;20056;-47
2022/10/24 00:57:36;;;;;;;8.60;2.33;;;;;;;20.20;58.56;100330.81;5081410;28;20044;-46
2022/10/24 01:00:08;;;;;;;6.75;2.08;;;;;;;20.21;58.23;100326.28;5080873;28;20055;-43
2022/10/24 01:02:35;;;;;;;4.00;1.90;;;;;;;20.21;58.80;100319.03;5083033;28;20048;-46
2022/10/24 01:05:03;;;;;;;3.40;1.77;;;;;;;20.19;58.79;100318.41;5080376;28;20052;-44
2022/10/24 01:08:00;;;;;;;3.85;1.73;;;;;;;20.18;59.02;100319.41;5082533;28;20059;-47
2022/10/24 01:11:00;;;;;;;4.25;1.95;;;;;;;20.19;58.52;100322.94;5081874;28;20051;-45
2022/10/24 01:13:32;;;;;;;5.65;2.10;;;;;;;20.19;58.15;100312.19;5082558;28;20461;-44
2022/10/24 01:16:08;;;;;;;4.43;1.83;;;;;;;20.17;58.71;100306.97;5080607;28;20059;-44
2022/10/24 01:19:15;;;;;;;4.68;1.60;;;;;;;20.18;57.97;100305.09;5084172;28;20045;-44
2022/10/24 01:22:00;;;;;;;7.20;1.50;;;;;;;20.18;58.19;100302.41;5082823;28;20055;-44
2022/10/24 01:24:44;;;;;;;5.97;1.80;;;;;;;20.19;58.20;100304.09;5082572;28;20155;-43
2022/10/24 01:27:48;;;;;;;5.03;1.58;;;;;;;20.17;58.51;100308.81;5080869;28;20580;-43
2022/10/24 01:30:15;;;;;;;4.25;2.00;;;;;;;20.17;58.33;100306.97;5081991;28;20419;-47
2022/10/24 01:32:47;;;;;;;2.45;1.50;;;;;;;20.16;58.58;100299.91;5085493;28;20401;-43
2022/10/24 01:35:55;;;;;;;6.03;1.60;;;;;;;20.14;58.03;100293.88;5081310;28;20055;-46
2022/10/24 01:38:55;;;;;;;5.85;1.70;;;;;;;20.15;57.94;100287.47;4998654;28;20376;-44
2022/10/24 01:41:25;;;;;;;3.22;1.63;;;;;;;20.16;57.88;100288.31;5080891;28;20044;-44
2022/10/24 01:43:56;;;;;;;1.98;1.50;;;;;;;20.15;57.97;100284.78;5080712;28;20063;-44
2022/10/24 01:46:30;;;;;;;4.15;2.03;;;;;;;20.14;58.11;100285.81;5082419;28;20055;-44
2022/10/24 01:49:02;;;;;;;6.78;2.00;;;;;;;20.15;58.48;100278.59;5084639;28;20047;-47
2022/10/24 01:51:31;;;;;;;7.45;2.20;;;;;;;20.14;58.32;100276.88;5082073;28;20407;-43
2022/10/24 01:53:58;;;;;;;4.47;1.75;;;;;;;20.14;58.53;100275.06;5082739;28;20208;-45
2022/10/24 01:56:26;;;;;;;2.83;1.70;;;;;;;20.15;58.66;100281.28;5081378;28;20121;-45
2022/10/24 01:59:02;;;;;;;5.57;2.30;;;;;;;20.15;58.64;100273.19;5078985;28;20040;-44
2022/10/24 02:01:30;;;;;;;4.50;2.00;;;;;;;20.14;57.70;100269.69;5083231;28;20048;-45
2022/10/24 02:04:01;;;;;;;3.95;2.20;;;;;;;20.13;58.16;100270.66;5082603;28;20475;-44
2022/10/24 02:06:34;;;;;;;5.20;1.67;;;;;;;20.12;58.48;100269.00;5082229;28;20056;-44
2022/10/24 02:09:09;;;;;;;4.95;2.13;;;;;;;20.13;58.32;100264.47;5083657;28;20048;-46
2022/10/24 02:11:37;;;;;;;3.28;1.50;;;;;;;20.12;58.19;100269.00;5084031;28;20093;-44
2022/10/24 02:14:24;;;;;;;5.75;2.00;;;;;;;20.11;57.62;100261.13;5083532;28;20355;-44
2022/10/24 02:16:51;;;;;;;3.33;1.75;;;;;;;20.11;58.08;100258.44;5080623;28;21281;-45
2022/10/24 02:19:17;;;;;;;1.90;1.33;;;;;;;20.11;58.27;100256.56;5082239;28;20327;-48
2022/10/24 02:22:07;;;;;;;3.92;1.58;;;;;;;20.09;57.73;100258.59;5081950;28;20048;-44
2022/10/24 02:24:44;;;;;;;3.97;1.35;;;;;;;20.09;58.30;100269.34;5085804;28;20051;-46
2022/10/24 02:27:33;;;;;;;3.40;1.50;;;;;;;20.09;57.65;100268.53;5082539;28;20048;-44
2022/10/24 02:30:02;;;;;;;4.57;1.55;;;;;;;20.10;58.29;100265.69;5081830;28;20722;-44
2022/10/24 02:32:39;;;;;;;2.78;1.80;;;;;;;20.08;58.14;100259.63;5080930;28;20071;-46
2022/10/24 02:35:08;;;;;;;4.65;1.60;;;;;;;20.08;58.11;100261.47;5086081;28;20118;-45
2022/10/24 02:37:40;;;;;;;2.92;1.52;;;;;;;20.08;58.22;100262.31;5081765;28;20052;-44
2022/10/24 02:40:10;;;;;;;2.47;1.33;;;;;;;20.08;58.16;100259.63;5077025;28;20041;-44
2022/10/24 02:42:39;;;;;;;3.72;1.42;;;;;;;20.06;57.50;100258.97;5081586;28;20055;-44
2022/10/24 02:45:08;;;;;;;3.40;1.42;;;;;;;20.07;58.25;100257.97;5079324;28;20102;-43
2022/10/24 02:47:39;;;;;;;3.25;1.30;;;;;;;20.06;58.12;100252.75;5081154;28;20343;-46
2022/10/24 02:50:06;;;;;;;4.95;1.55;;;;;;;20.06;57.42;100250.06;5081924;28;20074;-44
2022/10/24 02:52:33;;;;;;;4.05;1.23;;;;;;;20.05;57.85;100243.84;5082834;28;20052;-44
2022/10/24 02:55:00;;;;;;;3.45;1.70;;;;;;;20.05;57.96;100248.38;5080086;28;20414;-45
2022/10/24 02:57:27;;;;;;;3.40;1.75;;;;;;;20.03;58.15;100243.19;5087676;28;20055;-45
2022/10/24 02:59:53;;;;;;;4.55;1.77;;;;;;;20.04;58.01;100257.47;5083462;28;20447;-44
2022/10/24 03:02:21;;;;;;;3.50;1.45;;;;;;;20.04;57.50;100252.09;5086108;28;20055;-43
2022/10/24 03:04:48;;;;;;;4.70;1.65;;;;;;;20.02;57.99;100246.06;5086327;28;20069;-44
2022/10/24 03:07:15;;;;;;;6.18;1.40;;;;;;;20.02;57.70;100252.28;5085537;28;20048;-44
2022/10/24 03:09:41;;;;;;;3.42;1.40;;;;;;;20.01;57.95;100264.06;5089459;28;20443;-47
2022/10/24 03:12:12;;;;;;;4.78;1.58;;;;;;;20.01;57.94;100261.34;5084935;28;20447;-43
2022/10/24 03:14:38;;;;;;;2.60;1.67;;;;;;;20.00;57.18;100256.16;5085437;28;20059;-45
2022/10/24 03:17:05;;;;;;;5.63;1.42;;;;;;;20.00;56.97;100251.63;5086228;28;20125;-46
2022/10/24 03:19:31;;;;;;;5.25;2.20;;;;;;;19.99;57.67;100255.34;5087069;28;20069;-44
2022/10/24 03:21:58;;;;;;;2.97;1.30;;;;;;;19.99;57.58;100241.88;5085476;28;20564;-44
2022/10/24 03:24:24;;;;;;;3.08;1.42;;;;;;;19.99;57.71;100249.13;5086710;28;20056;-44
2022/10/24 03:27:09;;;;;;;3.33;1.33;;;;;;;19.99;57.12;100247.28;5088058;28;20051;-44
2022/10/24 03:29:36;;;;;;;4.57;1.67;;;;;;;19.99;57.19;100259.88;5086050;28;20045;-43
2022/10/24 03:32:02;;;;;;;4.53;1.30;;;;;;;19.97;57.39;100254.66;5080824;28;20068;-43
2022/10/24 03:34:29;;;;;;;5.28;1.15;;;;;;;19.97;57.44;100251.97;5086523;28;20047;-43
2022/10/24 03:36:55;;;;;;;5.95;1.50;;;;;;;19.97;56.80;100249.28;5087857;28;20116;-44
2022/10/24 03:39:22;;;;;;;2.97;1.30;;;;;;;19.97;57.45;100260.88;5085956;28;20032;-46
2022/10/24 03:41:48;;;;;;;4.72;1.92;;;;;;;19.96;57.16;100247.63;5083230;28;20068;-45
2022/10/24 03:44:15;;;;;;;2.72;1.13;;;;;;;19.96;56.63;100255.69;5083166;28;20051;-43
2022/10/24 03:46:41;;;;;;;4.82;1.33;;;;;;;19.97;57.03;100254.66;5085433;28;20047;-43
2022/10/24 03:49:08;;;;;;;3.60;1.30;;;;;;;19.96;56.66;100250.31;5082022;28;20044;-45
2022/10/24 03:51:34;;;;;;;3.90;1.20;;;;;;;19.95;57.24;100254.88;5086963;28;20117;-46
2022/10/24 03:54:01;;;;;;;5.43;1.77;;;;;;;19.96;56.91;100247.63;5085809;28;20553;-44
2022/10/24 03:56:27;;;;;;;2.67;1.45;;;;;;;19.94;56.06;100261.28;5084618;28;20389;-44
2022/10/24 03:58:54;;;;;;;3.38;1.40;;;;;;;19.95;56.49;100257.56;5084535;28;20052;-46
2022/10/24 04:01:21;;;;;;;4.63;1.50;;;;;;;19.93;56.27;100248.81;5082006;28;20044;-46
2022/10/24 04:03:47;;;;;;;9.30;1.70;;;;;;;19.93;56.63;100251.50;5085800;28;20107;-44
2022/10/24 04:06:14;;;;;;;5.22;1.85;;;;;;;19.93;56.84;100253.34;5080154;28;20044;-46
2022/10/24 04:08:40;;;;;;;3.78;1.42;;;;;;;19.92;56.75;100254.38;5086297;28;20045;-47
2022/10/24 04:11:07;;;;;;;4.28;1.20;;;;;;;19.92;55.96;100255.22;5087698;28;20047;-45
2022/10/24 04:13:34;;;;;;;3.88;1.45;;;;;;;19.91;56.11;100256.25;5084776;28;20077;-45
2022/10/24 04:16:01;;;;;;;4.93;1.38;;;;;;;19.91;56.37;100247.34;5084933;28;20047;-44
2022/10/24 04:18:27;;;;;;;2.88;1.00;;;;;;;19.92;56.42;100249.84;5083040;28;20094;-44
2022/10/24 04:20:54;;;;;;;4.35;1.55;;;;;;;19.91;56.07;100250.88;5084720;28;20051;-44
2022/10/24 04:23:20;;;;;;;6.35;1.35;;;;;;;19.93;56.63;100247.97;5074553;28;20098;-44
2022/10/24 04:25:47;;;;;;;4.82;1.23;;;;;;;19.90;55.82;100246.50;5075387;28;20446;-44
2022/10/24 04:28:13;;;;;;;4.80;1.35;;;;;;;19.90;55.96;100248.34;5084653;28;20093;-44
2022/10/24 04:30:40;;;;;;;5.30;1.30;;;;;;;19.92;56.37;100251.69;5081011;28;20056;-43
2022/10/24 04:33:06;;;;;;;6.80;1.40;;;;;;;19.93;56.09;100247.97;5085035;28;20423;-43
2022/10/24 04:35:33;;;;;;;2.95;1.25;;;;;;;19.89;56.04;100242.13;5085241;28;20056;-45
2022/10/24 04:37:59;;;;;;;6.75;1.30;;;;;;;19.92;56.30;100251.69;5081049;28;20052;-43
2022/10/24 04:40:26;;;;;;;2.55;1.15;;;;;;;19.90;55.83;100240.25;5087854;28;20048;-46
2022/10/24 04:42:52;;;;;;;3.58;1.17;;;;;;;19.90;56.31;100242.94;5086820;28;20051;-43
2022/10/24 04:45:19;;;;;;;6.85;1.13;;;;;;;19.92;55.55;100243.63;5077430;28;20059;-44
2022/10/24 04:47:45;;;;;;;4.40;1.13;;;;;;;19.90;56.13;100242.94;5083712;28;20071;-44
2022/10/24 04:50:12;;;;;;;6.72;1.40;;;;;;;19.90;55.44;100241.13;5083514;28;20053;-44
2022/10/24 04:52:39;;;;;;;4.03;1.25;;;;;;;19.90;55.70;100245.63;5079864;28;20052;-44
2022/10/24 04:55:06;;;;;;;4.65;1.63;;;;;;;19.90;55.57;100249.19;5088133;28;20052;-44
2022/10/24 04:57:32;;;;;;;7.53;1.50;;;;;;;19.91;55.74;100240.09;5085355;28;20044;-44
2022/10/24 04:59:59;;;;;;;4.63;1.02;;;;;;;19.89;55.17;100246.66;5082357;28;20356;-45
2022/10/24 05:02:25;;;;;;;3.83;1.35;;;;;;;19.89;56.13;100252.88;5082428;28;20044;-47
2022/10/24 05:04:52;;;;;;;4.93;1.50;;;;;;;19.89;55.95;100244.81;5078382;28;20052;-44
2022/10/24 05:07:20;;;;;;;5.20;1.23;;;;;;;19.89;55.51;100258.25;5082620;28;20052;-44
2022/10/24 05:09:47;;;;;;;6.28;1.27;;;;;;;19.89;55.63;100246.66;5090755;28;20066;-44
2022/10/24 05:12:13;;;;;;;2.78;1.05;;;;;;;19.89;55.51;100252.03;5083202;28;20052;-45
2022/10/24 05:14:40;;;;;;;4.88;1.30;;;;;;;19.89;55.24;100243.97;5081129;28;20044;-43
2022/10/24 05:17:06;;;;;;;7.40;1.60;;;;;;;19.89;55.37;100241.28;5085886;28;20113;-44
2022/10/24 05:19:33;;;;;;;3.97;1.45;;;;;;;19.88;55.79;100240.47;5083679;28;20052;-43
2022/10/24 05:21:59;;;;;;;7.90;1.30;;;;;;;19.89;55.28;100246.66;5082332;28;20071;-43
2022/10/24 05:24:26;;;;;;;7.68;1.00;;;;;;;19.88;55.74;100245.00;5088539;28;20063;-44
2022/10/24 05:26:52;;;;;;;3.03;1.10;;;;;;;19.88;55.88;100248.53;5083217;28;20055;-45
2022/10/24 05:29:19;;;;;;;4.85;1.05;;;;;;;19.88;55.51;100245.00;5085683;28;20067;-43
2022/10/24 05:31:45;;;;;;;6.13;1.70;;;;;;;19.89;nan;100243.97;5085509;28;20055;-44
2022/10/24 05:34:12;;;;;;;4.10;1.30;;;;;;;19.88;55.25;100236.94;5081839;28;20044;-44
2022/10/24 05:36:39;;;;;;;8.63;1.95;;;;;;;19.88;55.56;100237.75;5084250;28;20060;-44
2022/10/24 05:39:05;;;;;;;4.22;0.93;;;;;;;19.88;55.20;100232.38;5089846;28;20040;-43
2022/10/24 05:41:32;;;;;;;3.30;1.23;;;;;;;19.88;55.36;100234.25;5081970;28;20478;-43
2022/10/24 05:43:58;;;;;;;5.22;1.27;;;;;;;19.87;55.30;100243.34;5083146;28;20045;-45
2022/10/24 05:46:25;;;;;;;2.72;1.00;;;;;;;19.88;55.65;100247.69;5079918;28;20123;-44
2022/10/24 05:48:52;;;;;;;5.55;1.10;;;;;;;19.87;55.62;100244.16;5081529;28;20044;-45
2022/10/24 05:51:18;;;;;;;5.95;1.30;;;;;;;19.86;55.48;100239.81;5080088;28;21155;-43
2022/10/24 05:53:45;;;;;;;2.53;1.08;;;;;;;19.85;55.69;100246.19;5076210;28;20066;-44
2022/10/24 05:56:11;;;;;;;7.20;1.40;;;;;;;19.86;55.35;100249.72;5078339;28;20796;-43
2022/10/24 05:58:38;;;;;;;3.70;1.05;;;;;;;19.85;55.80;100240.81;5077249;28;20336;-44
2022/10/24 06:01:04;;;;;;;4.35;0.98;;;;;;;19.85;55.36;100250.72;5084923;28;20377;-44
2022/10/24 06:03:31;;;;;;;3.83;1.00;;;;;;;19.86;55.01;100249.72;5083713;28;20113;-46
2022/10/24 06:06:03;;;;;;;5.28;1.15;;;;;;;19.84;55.47;100244.53;5085218;28;20058;-45
2022/10/24 06:08:29;;;;;;;4.70;1.67;;;;;;;19.84;55.29;100247.22;5084663;28;20052;-45
2022/10/24 06:10:56;;;;;;;2.88;1.27;;;;;;;19.84;55.57;100249.91;5084419;28;20040;-44
2022/10/24 06:13:22;;;;;;;2.88;1.00;;;;;;;19.85;55.58;100250.72;5083506;28;20067;-45
2022/10/24 06:15:49;;;;;;;4.22;1.08;;;;;;;19.84;55.86;100238.31;5083499;28;20049;-46
2022/10/24 06:18:15;;;;;;;5.35;1.42;;;;;;;19.83;55.73;100242.84;5080057;28;20056;-45
2022/10/24 06:20:42;;;;;;;5.55;1.15;;;;;;;19.83;55.00;100258.16;5080164;28;20044;-44
2022/10/24 06:23:08;;;;;;;6.47;1.58;;;;;;;19.83;55.59;100242.03;5084106;28;20044;-45
2022/10/24 06:25:35;;;;;;;4.20;1.20;;;;;;;19.84;55.71;100254.44;5083116;28;20378;-44
2022/10/24 06:28:01;;;;;;;2.67;1.10;;;;;;;19.83;55.15;100255.47;5075767;28;20687;-44
2022/10/24 06:30:28;;;;;;;4.80;1.65;;;;;;;19.83;55.50;100258.16;5084610;28;20106;-44
2022/10/24 06:32:54;;;;;;;5.20;1.35;;;;;;;19.83;55.18;100260.84;5081550;28;20055;-43
2022/10/24 06:35:21;;;;;;;6.85;1.13;;;;;;;19.82;55.19;100269.91;5089658;28;20320;-44
2022/10/24 06:37:47;;;;;;;4.22;1.55;;;;;;;19.82;54.88;100270.78;5087782;28;20067;-43
2022/10/24 06:40:16;;;;;;;4.45;1.30;;;;;;;19.82;55.73;100278.84;5085895;28;20308;-46
2022/10/24 06:42:43;;;;;;;4.40;1.10;;;;;;;19.82;55.40;100272.59;5087091;28;20036;-43
2022/10/24 06:45:10;;;;;;;5.68;1.00;;;;;;;19.82;55.71;100273.47;5088895;28;20177;-44
2022/10/24 06:47:37;;;;;;;4.05;1.20;;;;;;;19.82;55.16;100286.91;5087628;28;20382;-47
2022/10/24 06:50:05;;;;;;;9.02;1.70;;;;;;;19.82;55.33;100289.59;5090283;28;20056;-44
2022/10/24 06:52:31;;;;;;;3.70;1.20;;;;;;;19.84;54.99;100310.94;5087470;28;20044;-43
2022/10/24 06:54:58;;;;;;;3.33;0.95;;;;;;;19.83;55.24;100291.25;5086611;28;20044;-44
2022/10/24 06:57:24;;;;;;;3.65;0.95;;;;;;;19.83;54.92;100299.34;5084123;28;20381;-44
2022/10/24 06:59:52;;;;;;;5.95;1.75;;;;;;;19.84;55.30;100308.22;5084357;28;20044;-44
2022/10/24 07:02:18;;;;;;;3.80;1.20;;;;;;;19.86;55.56;100308.88;5084836;28;20304;-43
2022/10/24 07:04:45;;;;;;;5.00;1.20;;;;;;;19.85;55.34;100312.59;5089815;28;20048;-44
2022/10/24 07:07:17;;;;;;;6.53;1.58;;;;;;;19.84;55.46;100314.44;5089042;28;20052;-43
2022/10/24 07:09:44;;;;;;;6.20;1.20;;;;;;;19.85;55.39;100315.28;5083648;28;20404;-45
2022/10/24 07:12:11;;;;;;;3.53;1.30;;;;;;;19.85;55.71;100329.56;5088527;28;20497;-43
2022/10/24 07:14:37;;;;;;;3.80;1.00;;;;;;;19.85;55.04;100332.25;5086600;28;20131;-44
2022/10/24 07:17:05;;;;;;;7.13;2.00;;;;;;;19.85;54.76;100350.25;5089004;28;20469;-44
2022/10/24 07:19:31;;;;;;;5.47;1.23;;;;;;;19.85;55.40;100336.78;5088842;28;20332;-44
2022/10/24 07:22:03;;;;;;;4.70;1.30;;;;;;;19.85;54.88;100342.16;5084207;28;20427;-44
2022/10/24 07:24:29;;;;;;;5.65;1.10;;;;;;;19.85;54.81;100367.22;5083637;28;20051;-43
2022/10/24 07:26:56;;;;;;;2.47;1.00;;;;;;;19.84;55.46;100346.72;5088002;28;20466;-44
2022/10/24 07:29:23;;;;;;;5.60;1.00;;;;;;;19.85;55.28;100361.84;5083079;28;20048;-43
2022/10/24 07:31:50;;;;;;;4.40;0.90;;;;;;;19.86;55.49;100373.41;5084377;28;20051;-45
2022/10/24 07:34:16;;;;;;;5.18;1.20;;;;;;;19.85;55.57;100361.84;5084559;28;20094;-45
2022/10/24 07:36:43;;;;;;;3.53;1.10;;;;;;;19.86;55.34;100357.28;5085410;28;20052;-44
2022/10/24 07:39:10;;;;;;;9.93;1.95;;;;;;;19.86;55.40;100374.28;5083548;28;20054;-44
2022/10/24 07:41:40;;;;;;;5.07;1.25;;;;;;;19.86;54.76;100376.97;5086926;28;20051;-43
2022/10/24 07:44:07;;;;;;;3.15;0.93;;;;;;;19.86;55.05;100376.13;5086772;28;20055;-45
2022/10/24 07:46:33;;;;;;;3.90;1.30;;;;;;;19.85;55.32;100383.34;5081971;28;20053;-45
2022/10/24 07:49:00;;;;;;;4.75;1.00;;;;;;;19.86;55.56;100379.66;5085697;28;20047;-44
2022/10/24 07:51:28;;;;;;;3.92;2.03;;;;;;;19.86;55.38;100393.13;5087861;28;20052;-44
2022/10/24 07:53:58;;;;;;;8.35;1.58;;;;;;;19.86;55.00;100386.88;5084355;28;20048;-44
2022/10/24 07:56:25;;;;;;;5.88;1.02;;;;;;;19.87;55.21;100393.94;5084191;28;20443;-43
2022/10/24 07:58:52;;;;;;;4.43;1.20;;;;;;;19.87;55.00;100402.84;5082976;28;20051;-46
2022/10/24 08:01:22;;;;;;;7.25;1.55;;;;;;;19.88;55.35;100401.00;5088181;28;20054;-43
2022/10/24 08:03:49;;;;;;;4.82;1.15;;;;;;;19.88;55.63;100422.50;5084857;28;20048;-43
2022/10/24 08:06:19;;;;;;;3.65;1.35;;;;;;;19.88;55.24;100422.50;5085892;28;20052;-44
2022/10/24 08:08:46;;;;;;;5.75;1.60;;;;;;;19.87;55.44;100415.47;5085623;28;20052;-43
2022/10/24 08:11:20;;;;;;;5.10;1.00;;;;;;;19.85;55.08;100423.69;5084869;28;20056;-44
2022/10/24 08:13:48;;;;;;;10.82;1.20;;;;;;;19.86;55.02;100424.53;5083958;28;20056;-44
2022/10/24 08:16:15;;;;;;;5.50;1.65;;;;;;;19.85;55.42;100434.44;5080888;28;20435;-45
2022/10/24 08:18:43;;;;;;;8.15;1.30;;;;;;;19.85;55.60;100422.84;5081710;28;20053;-45
2022/10/24 08:21:12;;;;;;;5.80;1.60;;;;;;;19.86;55.26;100416.44;5083124;28;20048;-45
2022/10/24 08:23:41;;;;;;;7.10;1.77;;;;;;;19.86;55.17;100429.91;5083472;28;20047;-44
2022/10/24 08:26:12;;;;;;;4.93;1.00;;;;;;;19.87;56.20;100436.97;5088731;28;20056;-46
2022/10/24 08:28:39;;;;;;;6.72;1.25;;;;;;;19.88;55.29;100430.59;5085267;28;20044;-43
2022/10/24 08:31:09;;;;;;;4.25;1.42;;;;;;;19.88;55.26;100439.47;5087864;28;20047;-44
2022/10/24 08:33:35;;;;;;;6.70;2.10;;;;;;;19.89;56.00;100451.91;5083992;28;20050;-45
2022/10/24 08:36:23;;;;;;;7.28;1.83;;;;;;;19.90;56.01;100452.75;5084808;28;20071;-45
2022/10/24 08:38:49;;;;;;;7.43;1.45;;;;;;;19.90;55.32;100466.19;5083519;28;20127;-44
2022/10/24 08:41:28;;;;;;;5.93;1.52;;;;;;;19.90;55.21;100466.19;5080530;28;20444;-44
2022/10/24 08:43:57;;;;;;;5.32;1.38;;;;;;;19.91;56.00;100463.34;5083726;28;20048;-44
2022/10/24 08:46:36;;;;;;;3.20;1.63;;;;;;;19.89;55.15;100468.06;5081194;28;20048;-47
2022/10/24 08:49:14;;;;;;;5.07;1.40;;;;;;;19.92;55.16;100472.25;5081726;28;20052;-44
2022/10/24 08:51:56;;;;;;;8.07;1.38;;;;;;;19.92;55.40;100461.50;5088021;28;20048;-43
2022/10/24 08:54:30;;;;;;;3.95;0.90;;;;;;;19.94;55.77;100467.56;5083998;28;20056;-44
2022/10/24 08:56:58;;;;;;;;;;;;;;;19.95;56.29;100461.16;5083258;28;20158;-43
2022/10/24 08:59:28;;;;;;;7.47;1.48;;;;;;;20.00;55.67;100472.22;5081512;28;20151;-44
2022/10/24 09:02:17;;;;;;;5.40;1.33;;;;;;;20.00;56.10;100472.22;5082101;28;20056;-46
2022/10/24 09:04:58;;;;;;;8.23;0.93;;;;;;;20.03;56.13;100473.72;5083193;28;20044;-43
2022/10/24 09:07:25;;;;;;;5.18;1.60;;;;;;;20.03;56.09;100469.19;5085055;28;20513;-44
2022/10/24 09:10:09;;;;;;;4.32;1.30;;;;;;;20.04;55.77;100484.28;5082585;28;20036;-43
2022/10/24 09:12:36;;;;;;;4.30;1.17;;;;;;;20.05;55.67;100483.28;5083387;28;20047;-44
2022/10/24 09:15:12;;;;;;;6.53;1.50;;;;;;;20.05;55.68;100496.72;5082090;28;20072;-44
2022/10/24 09:17:41;;;;;;;6.13;1.20;;;;;;;20.06;55.33;100498.44;5082119;28;20055;-45
2022/10/24 09:20:27;;;;;;;5.10;1.20;;;;;;;20.07;56.15;100492.03;5084901;28;20075;-43
2022/10/24 09:22:58;;;;;;;3.92;1.30;;;;;;;20.09;55.98;100498.06;5079371;28;20051;-47
2022/10/24 09:25:29;;;;;;;4.40;1.00;;;;;;;20.11;55.31;100508.66;5081152;28;20052;-44
2022/10/24 09:27:57;;;;;;;6.82;1.13;;;;;;;20.14;56.08;100513.66;5082388;28;20044;-45
2022/10/24 09:30:26;;;;;;;5.78;1.20;;;;;;;20.17;55.51;100513.31;5082979;28;20044;-47
2022/10/24 09:33:17;;;;;;;8.65;1.40;;;;;;;20.20;55.31;100511.13;5082492;28;20045;-44
2022/10/24 09:35:44;;;;;;;4.50;0.90;;;;;;;20.25;55.20;100523.22;5088856;28;20047;-44
2022/10/24 09:38:24;;;;;;;4.20;1.33;;;;;;;20.27;55.75;100519.34;5080927;28;20056;-43
2022/10/24 09:40:53;;;;;;;4.82;1.25;;;;;;;20.30;55.78;100520.81;5086070;28;20047;-44
2022/10/24 09:43:25;;;;;;;3.00;0.90;;;;;;;20.32;55.54;100540.34;5087069;28;20474;-44
2022/10/24 09:46:01;;;;;;;4.72;1.00;;;;;;;20.36;55.63;100536.28;5081393;28;20056;-44
2022/10/24 09:48:31;;;;;;;5.72;0.90;;;;;;;20.40;55.88;100546.50;5084069;28;20431;-45
2022/10/24 09:50:59;;;;;;;4.03;1.02;;;;;;;20.42;55.58;100539.13;5082838;28;20052;-45
2022/10/24 09:53:32;;;;;;;3.67;1.15;;;;;;;20.46;55.22;100544.97;5081938;28;20143;-45
2022/10/24 09:56:14;;;;;;;;;;;;;;;20.50;55.14;100549.00;5081374;28;20070;-46
2022/10/24 09:58:41;;;;;;;3.67;1.02;;;;;;;20.57;55.45;100543.75;5083787;28;19928;-44
2022/10/24 10:01:21;;;;;;;1.85;0.90;;;;;;;20.60;55.23;100556.88;5081980;28;20044;-45
2022/10/24 10:04:03;;;;;;;3.35;1.45;;;;;;;20.62;55.77;100571.84;5080743;28;20067;-45
2022/10/24 10:06:42;;;;;;;5.80;1.52;;;;;;;20.66;55.24;100566.91;5083053;28;20044;-48
2022/10/24 10:09:15;;;;;;;5.05;1.70;;;;;;;20.68;55.89;100576.50;5083855;28;20044;-44
2022/10/24 10:11:42;;;;;;;3.53;1.00;;;;;;;20.72;55.38;100562.69;5082443;28;20045;-44
2022/10/24 10:14:28;;;;;;;2.72;1.38;;;;;;;20.74;55.14;100576.81;5082009;28;20075;-45
2022/10/24 10:17:00;;;;;;;4.40;1.50;;;;;;;20.76;55.52;100588.25;5081147;28;20343;-46
2022/10/24 10:19:30;;;;;;;3.85;1.25;;;;;;;20.77;55.62;100598.00;5086548;28;20048;-44
2022/10/24 10:22:00;;;;;;;2.50;1.33;;;;;;;20.78;55.48;100586.22;5084411;28;20040;-44
2022/10/24 10:24:42;;;;;;;8.30;1.52;;;;;;;20.78;55.39;100599.69;5083501;28;20059;-47
2022/10/24 10:27:29;;;;;;;5.25;1.30;;;;;;;20.80;55.56;100597.66;5081928;28;20053;-47
2022/10/24 10:30:11;;;;;;;2.30;0.88;;;;;;;20.81;54.94;100607.41;5082974;28;20049;-45
2022/10/24 10:32:51;;;;;;;3.55;1.17;;;;;;;20.83;55.33;100600.00;5085291;28;20049;-44
2022/10/24 10:35:27;;;;;;;4.13;1.00;;;;;;;20.84;55.61;100615.97;5081580;28;20041;-46
2022/10/24 10:38:35;;;;;;;4.97;0.93;;;;;;;20.84;55.13;100607.91;5080417;28;20059;-44
2022/10/24 10:41:14;;;;;;;2.35;0.80;;;;;;;20.86;55.23;100624.69;5077930;28;20059;-45
2022/10/24 10:43:52;;;;;;;3.85;0.95;;;;;;;20.86;55.23;100622.00;5084667;28;20044;-45
2022/10/24 10:46:24;;;;;;;3.42;1.23;;;;;;;20.86;54.70;100630.09;5081685;28;20055;-45
2022/10/24 10:49:15;;;;;;;3.08;1.00;;;;;;;20.87;55.11;100618.31;5078948;28;20040;-48
2022/10/24 10:51:57;;;;;;;3.58;0.93;;;;;;;20.86;55.28;100643.56;5080728;28;20068;-46
2022/10/24 10:54:26;;;;;;;2.80;1.00;;;;;;;20.87;54.88;100652.50;5081529;28;20048;-44
2022/10/24 10:56:59;;;;;;;3.50;1.00;;;;;;;20.87;54.70;100639.88;5082770;28;20051;-44
2022/10/24 10:59:28;;;;;;;3.65;0.95;;;;;;;20.87;55.09;100656.03;5086872;28;20055;-45
2022/10/24 11:02:13;;;;;;;6.80;1.33;;;;;;;20.87;54.88;100656.03;5087044;28;20044;-46
2022/10/24 11:04:51;;;;;;;3.75;1.00;;;;;;;20.87;54.87;100647.13;5084725;28;20131;-44
2022/10/24 11:07:34;;;;;;;5.60;0.93;;;;;;;20.87;54.85;100665.97;5086170;28;20424;-45
2022/10/24 11:10:06;;;;;;;3.72;1.00;;;;;;;20.87;54.55;100657.91;5079435;28;20442;-44
2022/10/24 11:12:40;;;;;;;2.93;0.70;;;;;;;20.87;55.03;100660.59;5081340;28;20056;-46
2022/10/24 11:15:16;;;;;;;3.75;1.00;;;;;;;20.85;54.20;100665.31;5080986;28;20576;-47
2022/10/24 11:17:55;;;;;;;4.13;1.10;;;;;;;20.88;54.55;100673.03;5084354;28;20047;-44
2022/10/24 11:20:30;;;;;;;4.93;1.05;;;;;;;20.85;54.07;100670.69;5088140;28;20052;-48
2022/10/24 11:23:09;;;;;;;2.58;0.75;;;;;;;20.84;53.95;100686.03;5087720;28;20048;-46
2022/10/24 11:25:43;;;;;;;4.00;1.50;;;;;;;20.83;54.05;100668.19;5084304;28;20098;-47
2022/10/24 11:28:38;;;;;;;4.15;0.85;;;;;;;20.82;54.77;100688.03;5083159;28;20048;-45
2022/10/24 11:31:22;;;;;;;3.67;0.90;;;;;;;20.82;54.68;100685.34;5082636;28;20041;-47
2022/10/24 11:34:04;;;;;;;;;;;;;;;20.81;54.85;100686.38;5088767;28;20048;-44
2022/10/24 11:36:46;;;;;;;4.18;0.88;;;;;;;20.84;54.77;100685.19;5084897;28;20250;-45
2022/10/24 11:39:32;;;;;;;5.18;0.90;;;;;;;20.83;55.02;100694.28;5083696;28;20111;-47
2022/10/24 11:42:09;;;;;;;4.00;1.10;;;;;;;20.83;54.94;100675.44;5087694;28;20044;-47
2022/10/24 11:45:09;;;;;;;2.72;1.00;;;;;;;20.82;54.84;100684.50;5086186;28;20331;-44